createdAt,value
2018-09-01T00:00:11.163Z,65.60
2018-09-01T00:02:39.366Z,64.70
2018-09-01T00:05:07.501Z,64.50
2018-09-01T00:07:35.567Z,64.30
2018-09-01T00:10:03.639Z,64.10
2018-09-01T00:12:31.702Z,64.00
2018-09-01T00:14:59.754Z,64.10
2018-09-01T00:17:29.662Z,64.20
2018-09-01T00:19:59.749Z,63.90
2018-09-01T00:22:27.819Z,64.10
2018-09-01T00:24:55.875Z,64.30
2018-09-01T00:27:24.306Z,64.30
2018-09-01T00:29:52.385Z,64.20
2018-09-01T00:32:21.218Z,64.50
2018-09-01T00:34:49.648Z,64.40
2018-09-01T00:37:23.174Z,64.20
2018-09-01T00:39:51.575Z,64.10
2018-09-01T00:42:19.718Z,64.20
2018-09-01T00:44:47.770Z,64.60
2018-09-01T00:47:15.863Z,64.80
2018-09-01T00:49:43.920Z,65.30
2018-09-01T00:52:11.983Z,64.80
2018-09-01T00:54:40.066Z,65.10
2018-09-01T00:57:08.151Z,65.00
2018-09-01T00:59:36.230Z,65.00
2018-09-01T01:02:04.309Z,65.30
2018-09-01T01:04:32.548Z,65.80
2018-09-01T01:07:00.654Z,66.00
2018-09-01T01:09:28.711Z,66.20
2018-09-01T01:11:56.787Z,66.30
2018-09-01T01:14:24.956Z,67.60
2018-09-01T01:16:52.999Z,67.30
2018-09-01T01:19:21.050Z,67.70
2018-09-01T01:21:49.117Z,67.90
2018-09-01T01:24:17.172Z,68.20
2018-09-01T01:26:45.263Z,68.50
2018-09-01T01:29:13.371Z,68.40
2018-09-01T01:31:41.505Z,68.50
2018-09-01T01:34:09.608Z,68.60
2018-09-01T01:36:37.684Z,68.60
2018-09-01T01:39:06.649Z,68.30
2018-09-01T01:41:34.737Z,68.60
2018-09-01T01:44:02.798Z,69.00
2018-09-01T01:46:30.871Z,69.20
2018-09-01T01:48:58.921Z,69.50
2018-09-01T01:51:26.999Z,69.30
2018-09-01T01:53:55.086Z,69.20
2018-09-01T01:56:23.169Z,69.50
2018-09-01T01:58:51.239Z,69.70
2018-09-01T02:01:19.306Z,70.00
2018-09-01T02:03:47.359Z,70.20
2018-09-01T02:06:15.398Z,70.90
2018-09-01T02:08:43.559Z,71.30
2018-09-01T02:11:11.664Z,71.50
2018-09-01T02:13:39.812Z,71.50
2018-09-01T02:16:07.897Z,72.00
2018-09-01T02:18:35.990Z,72.50
2018-09-01T02:21:04.073Z,72.80
2018-09-01T02:23:32.155Z,73.10
2018-09-01T02:26:00.212Z,73.00
2018-09-01T02:28:28.312Z,73.50
2018-09-01T02:30:56.341Z,73.80
2018-09-01T02:33:24.471Z,74.10
2018-09-01T02:35:52.496Z,74.90
2018-09-01T02:38:20.567Z,74.80
2018-09-01T02:40:48.656Z,75.30
2018-09-01T02:43:16.806Z,75.70
2018-09-01T02:45:44.867Z,75.60
2018-09-01T02:48:13.068Z,75.80
2018-09-01T02:50:41.107Z,76.00
2018-09-01T02:53:09.293Z,76.30
2018-09-01T02:55:37.338Z,76.60
2018-09-01T02:58:05.451Z,76.70
2018-09-01T03:00:35.589Z,76.70
2018-09-01T03:03:03.712Z,77.30
2018-09-01T03:05:31.802Z,77.80
2018-09-01T03:08:00.007Z,77.80
2018-09-01T03:10:28.057Z,77.90
2018-09-01T03:12:56.108Z,78.20
2018-09-01T03:15:24.322Z,78.80
2018-09-01T03:17:52.455Z,79.30
2018-09-01T03:20:20.548Z,79.40
2018-09-01T03:22:48.612Z,79.50
2018-09-01T03:25:16.664Z,79.20
2018-09-01T03:27:44.803Z,79.80
2018-09-01T03:30:12.889Z,80.50
2018-09-01T03:32:40.973Z,80.50
2018-09-01T03:35:09.054Z,80.20
2018-09-01T03:37:37.101Z,80.20
2018-09-01T03:40:05.901Z,80.60
2018-09-01T03:42:33.973Z,80.40
2018-09-01T03:45:02.033Z,80.40
2018-09-01T03:47:30.126Z,80.60
2018-09-01T03:49:58.204Z,81.30
2018-09-01T03:52:26.276Z,81.30
2018-09-01T03:54:54.371Z,81.40
2018-09-01T03:57:22.443Z,82.10
2018-09-01T03:59:50.495Z,82.30
2018-09-01T04:02:18.545Z,82.30
2018-09-01T04:04:47.672Z,82.40
2018-09-01T04:07:15.777Z,82.60
2018-09-01T04:09:43.834Z,82.80
2018-09-01T04:12:11.898Z,83.00
2018-09-01T04:14:39.985Z,83.00
2018-09-01T04:17:08.102Z,83.40
2018-09-01T04:19:36.315Z,83.70
2018-09-01T04:22:04.379Z,83.70
2018-09-01T04:24:32.462Z,84.20
2018-09-01T04:27:00.526Z,84.30
2018-09-01T04:29:28.599Z,85.60
2018-09-01T04:31:56.713Z,85.40
2018-09-01T04:34:24.767Z,85.10
2018-09-01T04:36:52.833Z,85.40
2018-09-01T04:39:20.877Z,85.90
2018-09-01T04:41:48.933Z,86.50
2018-09-01T04:44:17.021Z,85.50
2018-09-01T04:46:45.097Z,85.70
2018-09-01T04:49:13.162Z,85.30
2018-09-01T04:51:41.238Z,85.50
2018-09-01T04:54:10.327Z,85.20
2018-09-01T04:56:39.786Z,85.30
2018-09-01T04:59:07.829Z,85.40
2018-09-01T05:01:35.885Z,86.10
2018-09-01T05:04:04.073Z,85.60
2018-09-01T05:06:32.187Z,85.40
2018-09-01T05:09:00.268Z,85.50
2018-09-01T05:11:34.928Z,86.10
2018-09-01T05:14:02.997Z,86.10
2018-09-01T05:16:31.107Z,86.50
2018-09-01T05:18:59.195Z,86.40
2018-09-01T05:21:27.249Z,86.20
2018-09-01T05:23:55.370Z,86.20
2018-09-01T05:26:23.430Z,85.90
2018-09-01T05:28:51.482Z,86.80
2018-09-01T05:31:19.532Z,86.20
2018-09-01T05:33:47.611Z,86.00
2018-09-01T05:36:15.654Z,85.90
2018-09-01T05:38:43.731Z,86.00
2018-09-01T05:41:11.840Z,86.10
2018-09-01T05:43:39.971Z,86.20
2018-09-01T05:46:08.122Z,85.70
2018-09-01T05:48:36.216Z,84.70
2018-09-01T05:51:04.303Z,82.00
2018-09-01T05:53:32.358Z,80.00
2018-09-01T05:56:00.454Z,78.90
2018-09-01T05:58:28.542Z,79.00
2018-09-01T06:00:56.638Z,80.10
2018-09-01T06:03:24.787Z,80.30
2018-09-01T06:05:52.943Z,80.60
2018-09-01T06:08:20.986Z,81.50
2018-09-01T06:10:49.081Z,82.00
2018-09-01T06:13:17.245Z,82.20
2018-09-01T06:15:45.299Z,81.70
2018-09-01T06:18:13.387Z,81.20
2018-09-01T06:20:41.488Z,81.30
2018-09-01T06:23:09.563Z,81.20
2018-09-01T06:25:37.688Z,80.60
2018-09-01T06:28:13.093Z,80.10
2018-09-01T06:30:43.518Z,80.30
2018-09-01T06:33:11.630Z,80.70
2018-09-01T06:35:39.722Z,81.00
2018-09-01T06:38:07.812Z,80.90
2018-09-01T06:40:35.904Z,79.70
2018-09-01T06:43:04.048Z,79.00
2018-09-01T06:45:32.079Z,78.40
2018-09-01T06:48:00.159Z,78.20
2018-09-01T06:50:28.248Z,78.20
2018-09-01T06:52:56.338Z,78.40
2018-09-01T06:55:24.415Z,77.50
2018-09-01T06:57:52.541Z,76.70
2018-09-01T07:00:23.054Z,75.80
2018-09-01T07:02:52.680Z,74.10
2018-09-01T07:05:20.746Z,72.50
2018-09-01T07:07:48.849Z,71.30
2018-09-01T07:10:16.933Z,71.00
2018-09-01T07:12:45.036Z,70.50
2018-09-01T07:15:13.384Z,68.70
2018-09-01T07:17:41.819Z,67.10
2018-09-01T07:20:09.906Z,67.00
2018-09-01T07:22:38.058Z,64.90
2018-09-01T07:25:06.163Z,61.90
2018-09-01T07:27:34.341Z,60.10
2018-09-01T07:30:02.448Z,59.40
2018-09-01T07:32:30.539Z,58.60
2018-09-01T07:34:58.613Z,59.00
2018-09-01T07:37:26.707Z,60.30
2018-09-01T07:39:54.842Z,62.00
2018-09-01T07:42:22.931Z,63.00
2018-09-01T07:44:51.024Z,64.30
2018-09-01T07:47:19.140Z,64.90
2018-09-01T07:49:47.186Z,65.40
2018-09-01T07:52:15.307Z,65.00
2018-09-01T07:54:43.503Z,65.30
2018-09-01T07:57:11.530Z,65.80
2018-09-01T07:59:39.609Z,66.70
2018-09-01T08:02:07.850Z,67.30
2018-09-01T08:04:35.972Z,67.30
2018-09-01T08:07:04.035Z,66.80
2018-09-01T08:09:32.103Z,66.50
2018-09-01T08:12:00.182Z,66.30
2018-09-01T08:14:28.261Z,66.20
2018-09-01T08:16:56.499Z,66.70
2018-09-01T08:19:24.590Z,66.90
2018-09-01T08:21:52.709Z,66.90
2018-09-01T08:24:20.781Z,66.70
2018-09-01T08:26:48.843Z,66.60
2018-09-01T08:29:16.926Z,65.90
2018-09-01T08:31:45.046Z,65.40
2018-09-01T08:34:13.122Z,65.20
2018-09-01T08:36:41.207Z,64.60
2018-09-01T08:39:09.845Z,64.40
2018-09-01T08:41:37.943Z,64.20
2018-09-01T08:44:06.174Z,63.80
2018-09-01T08:46:34.366Z,62.60
2018-09-01T08:49:02.408Z,62.40
2018-09-01T08:51:30.483Z,62.50
2018-09-01T08:53:58.577Z,61.90
2018-09-01T08:56:26.650Z,61.90
2018-09-01T08:58:54.736Z,60.90
2018-09-01T09:01:22.813Z,61.00
2018-09-01T09:03:51.368Z,60.60
2018-09-01T09:06:19.554Z,60.80
2018-09-01T09:08:47.683Z,60.00
2018-09-01T09:11:15.767Z,59.30
2018-09-01T09:13:43.814Z,58.40
2018-09-01T09:16:11.883Z,58.70
2018-09-01T09:18:40.098Z,58.90
2018-09-01T09:21:08.416Z,59.20
2018-09-01T09:23:36.497Z,59.30
2018-09-01T09:26:04.578Z,59.20
2018-09-01T09:28:32.695Z,58.70
2018-09-01T09:31:01.179Z,57.30
2018-09-01T09:33:29.293Z,56.30
2018-09-01T09:35:57.364Z,56.00
2018-09-01T09:38:25.423Z,55.50
2018-09-01T09:40:53.561Z,54.90
2018-09-01T09:43:21.672Z,55.00
2018-09-01T09:45:49.733Z,54.70
2018-09-01T09:48:17.832Z,52.30
2018-09-01T09:50:45.954Z,53.00
2018-09-01T09:53:14.081Z,53.70
2018-09-01T09:55:42.289Z,53.60
2018-09-01T09:58:10.375Z,53.70
2018-09-01T10:00:43.863Z,53.30
2018-09-01T10:03:11.959Z,53.50
2018-09-01T10:05:40.092Z,53.30
2018-09-01T10:08:08.104Z,53.70
2018-09-01T10:10:36.167Z,53.80
2018-09-01T10:13:04.213Z,54.40
2018-09-01T10:15:32.269Z,52.20
2018-09-01T10:18:00.333Z,51.70
2018-09-01T10:20:28.491Z,52.10
2018-09-01T10:22:56.503Z,51.80
2018-09-01T10:25:24.567Z,50.20
2018-09-01T10:27:52.639Z,50.20
2018-09-01T10:30:20.668Z,50.40
2018-09-01T10:32:48.748Z,50.90
2018-09-01T10:35:16.802Z,50.80
2018-09-01T10:37:44.916Z,50.70
2018-09-01T10:40:12.993Z,51.00
2018-09-01T10:42:41.075Z,50.30
2018-09-01T10:45:09.167Z,51.00
2018-09-01T10:47:37.285Z,50.00
2018-09-01T10:50:05.673Z,50.00
2018-09-01T10:52:33.783Z,50.00
2018-09-01T10:55:01.841Z,49.80
2018-09-01T10:57:30.073Z,49.60
2018-09-01T10:59:58.154Z,49.30
2018-09-01T11:02:26.218Z,49.00
2018-09-01T11:04:54.271Z,48.90
2018-09-01T11:07:22.446Z,48.00
2018-09-01T11:09:50.545Z,47.40
2018-09-01T11:12:18.597Z,47.70
2018-09-01T11:14:46.707Z,47.50
2018-09-01T11:17:14.739Z,47.70
2018-09-01T11:19:42.852Z,47.70
2018-09-01T11:22:10.960Z,48.10
2018-09-01T11:24:39.039Z,48.30
2018-09-01T11:27:07.115Z,49.50
2018-09-01T11:29:35.201Z,49.90
2018-09-01T11:32:03.482Z,50.70
2018-09-01T11:34:31.758Z,50.70
2018-09-01T11:36:59.841Z,50.30
2018-09-01T11:39:27.962Z,51.10
2018-09-01T11:41:56.222Z,50.20
2018-09-01T11:44:24.656Z,49.00
2018-09-01T11:46:52.843Z,47.70
2018-09-01T11:49:20.968Z,46.90
2018-09-01T11:51:49.290Z,47.20
2018-09-01T11:54:17.339Z,46.70
2018-09-01T11:56:45.442Z,46.00
2018-09-01T11:59:13.639Z,45.80
2018-09-01T12:01:41.723Z,45.40
2018-09-01T12:04:09.867Z,46.80
2018-09-01T12:06:37.890Z,47.90
2018-09-01T12:09:06.660Z,48.30
2018-09-01T12:11:34.637Z,47.00
2018-09-01T12:14:02.742Z,47.10
2018-09-01T12:16:30.856Z,47.30
2018-09-01T12:18:58.957Z,47.70
2018-09-01T12:21:27.119Z,47.80
2018-09-01T12:23:55.170Z,47.10
2018-09-01T12:26:23.206Z,46.60
2018-09-01T12:28:51.283Z,45.60
2018-09-01T12:31:19.339Z,45.60
2018-09-01T12:33:47.382Z,45.40
2018-09-01T12:36:15.636Z,44.20
2018-09-01T12:38:43.740Z,44.40
2018-09-01T12:41:11.808Z,45.20
2018-09-01T12:43:39.923Z,44.40
2018-09-01T12:46:08.484Z,44.30
2018-09-01T12:48:36.549Z,44.50
2018-09-01T12:51:04.608Z,45.00
2018-09-01T12:53:32.717Z,45.10
2018-09-01T12:56:00.780Z,44.30
2018-09-01T12:58:28.851Z,44.40
2018-09-01T13:00:56.905Z,45.10
2018-09-01T13:03:24.993Z,45.50
2018-09-01T13:05:53.094Z,45.80
2018-09-01T13:08:21.206Z,45.60
2018-09-01T13:10:49.307Z,45.80
2018-09-01T13:13:17.396Z,45.10
2018-09-01T13:15:45.484Z,44.80
2018-09-01T13:18:13.567Z,44.70
2018-09-01T13:20:41.634Z,44.60
2018-09-01T13:23:09.689Z,44.50
2018-09-01T13:25:37.794Z,45.00
2018-09-01T13:28:05.911Z,45.70
2018-09-01T13:30:33.946Z,45.80
2018-09-01T13:33:02.054Z,45.80
2018-09-01T13:35:30.142Z,46.00
2018-09-01T13:37:58.214Z,46.30
2018-09-01T13:40:26.337Z,46.40
2018-09-01T13:42:54.440Z,46.10
2018-09-01T13:45:22.551Z,46.40
2018-09-01T13:47:50.632Z,46.50
2018-09-01T13:50:18.723Z,46.20
2018-09-01T13:52:46.784Z,46.10
2018-09-01T13:55:15.323Z,45.90
2018-09-01T13:57:43.378Z,46.00
2018-09-01T14:00:11.496Z,45.90
2018-09-01T14:02:39.566Z,46.00
2018-09-01T14:05:07.633Z,45.60
2018-09-01T14:07:35.702Z,45.60
2018-09-01T14:10:03.782Z,45.80
2018-09-01T14:12:31.867Z,45.00
2018-09-01T14:14:59.983Z,44.80
2018-09-01T14:17:28.070Z,44.90
2018-09-01T14:19:56.147Z,43.90
2018-09-01T14:22:24.270Z,43.80
2018-09-01T14:24:52.364Z,43.80
2018-09-01T14:27:20.575Z,43.70
2018-09-01T14:29:48.684Z,43.00
2018-09-01T14:32:16.755Z,42.70
2018-09-01T14:34:44.825Z,43.10
2018-09-01T14:37:12.975Z,43.60
2018-09-01T14:39:41.069Z,43.60
2018-09-01T14:42:09.130Z,43.20
2018-09-01T14:44:37.194Z,43.20
2018-09-01T14:47:05.313Z,43.50
2018-09-01T14:49:33.432Z,43.30
2018-09-01T14:52:01.496Z,43.00
2018-09-01T14:54:29.572Z,43.30
2018-09-01T14:56:57.646Z,43.40
2018-09-01T14:59:25.860Z,42.60
2018-09-01T15:01:53.935Z,42.30
2018-09-01T15:04:22.066Z,42.00
2018-09-01T15:06:50.147Z,42.30
2018-09-01T15:09:18.209Z,42.40
2018-09-01T15:11:46.285Z,42.40
2018-09-01T15:14:14.382Z,41.70
2018-09-01T15:16:42.632Z,41.20
2018-09-01T15:19:10.989Z,41.40
2018-09-01T15:21:39.123Z,41.20
2018-09-01T15:24:07.572Z,41.50
2018-09-01T15:26:35.862Z,41.70
2018-09-01T15:29:04.029Z,40.40
2018-09-01T15:31:32.831Z,40.60
2018-09-01T15:34:00.971Z,40.40
2018-09-01T15:36:29.050Z,40.20
2018-09-01T15:38:57.121Z,40.90
2018-09-01T15:41:25.196Z,41.70
2018-09-01T15:43:53.289Z,41.60
2018-09-01T15:46:21.407Z,42.20
2018-09-01T15:48:49.481Z,42.50
2018-09-01T15:51:17.585Z,42.90
2018-09-01T15:53:45.670Z,43.00
2018-09-01T15:56:13.815Z,42.60
2018-09-01T15:58:41.909Z,42.90
2018-09-01T16:01:09.982Z,42.20
2018-09-01T16:03:38.076Z,42.60
2018-09-01T16:06:06.145Z,41.90
2018-09-01T16:08:34.254Z,41.70
2018-09-01T16:11:02.372Z,41.30
2018-09-01T16:13:30.391Z,41.60
2018-09-01T16:15:58.491Z,42.10
2018-09-01T16:18:26.606Z,43.30
2018-09-01T16:20:54.717Z,43.10
2018-09-01T16:23:22.817Z,43.70
2018-09-01T16:25:50.939Z,44.40
2018-09-01T16:28:19.016Z,44.50
2018-09-01T16:30:47.104Z,44.70
2018-09-01T16:33:15.262Z,45.00
2018-09-01T16:35:43.370Z,45.00
2018-09-01T16:38:11.439Z,45.00
2018-09-01T16:40:39.514Z,45.10
2018-09-01T16:43:07.592Z,45.50
2018-09-01T16:45:35.704Z,45.70
2018-09-01T16:48:03.878Z,45.80
2018-09-01T16:50:31.954Z,45.80
2018-09-01T16:53:00.023Z,45.90
2018-09-01T16:55:28.207Z,45.90
2018-09-01T16:57:56.307Z,46.10
2018-09-01T17:00:24.430Z,46.50
2018-09-01T17:02:52.787Z,46.70
2018-09-01T17:05:20.884Z,47.00
2018-09-01T17:07:48.965Z,47.20
2018-09-01T17:10:17.030Z,47.30
2018-09-01T17:12:45.185Z,47.30
2018-09-01T17:15:13.256Z,47.50
2018-09-01T17:17:41.332Z,47.50
2018-09-01T17:20:09.463Z,47.80
2018-09-01T17:22:37.553Z,47.70
2018-09-01T17:25:06.011Z,47.70
2018-09-01T17:27:34.175Z,47.80
2018-09-01T17:30:02.224Z,47.70
2018-09-01T17:32:30.283Z,48.70
2018-09-01T17:34:58.354Z,48.20
2018-09-01T17:37:26.418Z,48.10
2018-09-01T17:39:54.466Z,48.10
2018-09-01T17:42:22.568Z,48.30
2018-09-01T17:44:50.697Z,48.40
2018-09-01T17:47:18.771Z,48.70
2018-09-01T17:49:46.837Z,49.00
2018-09-01T17:52:14.919Z,49.30
2018-09-01T17:54:43.020Z,50.10
2018-09-01T17:57:11.098Z,50.10
2018-09-01T17:59:39.219Z,50.50
2018-09-01T18:02:07.531Z,50.80
2018-09-01T18:04:35.799Z,51.10
2018-09-01T18:07:03.884Z,51.60
2018-09-01T18:09:31.934Z,52.00
2018-09-01T18:12:00.030Z,52.20
2018-09-01T18:14:28.143Z,52.40
2018-09-01T18:16:56.324Z,52.70
2018-09-01T18:19:24.425Z,53.10
2018-09-01T18:21:52.646Z,53.40
2018-09-01T18:24:20.730Z,53.80
2018-09-01T18:26:49.066Z,53.80
2018-09-01T18:29:17.176Z,54.20
2018-09-01T18:31:45.307Z,54.40
2018-09-01T18:34:13.430Z,54.50
2018-09-01T18:36:41.564Z,54.60
2018-09-01T18:39:10.714Z,54.80
2018-09-01T18:41:38.809Z,54.80
2018-09-01T18:44:06.923Z,54.90
2018-09-01T18:46:35.042Z,55.30
2018-09-01T18:49:03.452Z,54.40
2018-09-01T18:51:32.048Z,54.70
2018-09-01T18:54:00.160Z,55.60
2018-09-01T18:56:28.268Z,55.00
2018-09-01T18:58:56.310Z,54.80
2018-09-01T19:01:24.410Z,54.50
2018-09-01T19:03:52.491Z,54.40
2018-09-01T19:06:20.563Z,54.10
2018-09-01T19:08:48.641Z,54.50
2018-09-01T19:11:16.683Z,54.10
2018-09-01T19:13:44.771Z,54.10
2018-09-01T19:16:12.828Z,53.50
2018-09-01T19:18:40.907Z,53.40
2018-09-01T19:21:09.033Z,53.20
2018-09-01T19:23:37.057Z,53.40
2018-09-01T19:26:05.178Z,53.20
2018-09-01T19:28:33.243Z,53.00
2018-09-01T19:31:01.286Z,52.50
2018-09-01T19:33:29.347Z,52.90
2018-09-01T19:35:57.422Z,52.20
2018-09-01T19:38:25.541Z,52.00
2018-09-01T19:40:53.624Z,52.10
2018-09-01T19:43:21.726Z,52.20
2018-09-01T19:45:49.813Z,52.30
2018-09-01T19:48:17.881Z,52.30
2018-09-01T19:50:45.942Z,52.40
2018-09-01T19:53:14.019Z,52.20
2018-09-01T19:55:42.071Z,52.40
2018-09-01T19:58:10.254Z,52.50
2018-09-01T20:00:38.333Z,52.30
2018-09-01T20:03:06.414Z,52.40
2018-09-01T20:05:34.472Z,53.10
2018-09-01T20:08:02.985Z,52.70
2018-09-01T20:10:31.111Z,52.70
2018-09-01T20:12:59.212Z,52.70
2018-09-01T20:15:27.312Z,52.90
2018-09-01T20:17:55.384Z,53.10
2018-09-01T20:20:23.598Z,52.90
2018-09-01T20:22:51.683Z,52.90
2018-09-01T20:25:19.857Z,52.90
2018-09-01T20:27:47.849Z,53.00
2018-09-01T20:30:15.996Z,53.30
2018-09-01T20:32:44.069Z,53.60
2018-09-01T20:35:17.607Z,54.20
2018-09-01T20:37:45.696Z,54.80
2018-09-01T20:40:13.912Z,56.60
2018-09-01T20:42:41.978Z,55.20
2018-09-01T20:45:10.190Z,55.40
2018-09-01T20:47:38.305Z,55.50
2018-09-01T20:50:06.423Z,55.30
2018-09-01T20:52:34.474Z,55.10
2018-09-01T20:55:02.684Z,55.00
2018-09-01T20:57:30.790Z,55.50
2018-09-01T20:59:58.930Z,55.00
2018-09-01T21:02:26.979Z,55.10
2018-09-01T21:04:55.059Z,55.10
2018-09-01T21:07:23.118Z,55.10
2018-09-01T21:09:51.225Z,55.50
2018-09-01T21:12:19.279Z,55.50
2018-09-01T21:14:47.382Z,55.60
2018-09-01T21:17:15.452Z,56.00
2018-09-01T21:19:43.544Z,56.00
2018-09-01T21:22:11.631Z,56.00
2018-09-01T21:24:39.800Z,56.20
2018-09-01T21:27:07.884Z,56.30
2018-09-01T21:29:35.983Z,56.30
2018-09-01T21:32:04.054Z,56.30
2018-09-01T21:34:32.148Z,55.90
2018-09-01T21:37:00.218Z,56.50
2018-09-01T21:39:28.318Z,56.90
2018-09-01T21:41:56.394Z,57.30
2018-09-01T21:44:24.462Z,57.30
2018-09-01T21:46:52.531Z,57.30
2018-09-01T21:49:20.591Z,57.40
2018-09-01T21:51:48.640Z,57.80
2018-09-01T21:54:16.710Z,58.00
2018-09-01T21:56:44.794Z,58.30
2018-09-01T21:59:12.902Z,58.60
2018-09-01T22:01:40.953Z,58.90
2018-09-01T22:04:09.733Z,59.00
2018-09-01T22:06:37.951Z,59.00
2018-09-01T22:09:06.249Z,59.00
2018-09-01T22:11:34.318Z,59.10
2018-09-01T22:14:02.390Z,58.80
2018-09-01T22:16:30.471Z,59.00
2018-09-01T22:18:58.619Z,59.50
2018-09-01T22:21:26.739Z,58.80
2018-09-01T22:23:54.804Z,59.00
2018-09-01T22:26:23.118Z,59.10
2018-09-01T22:28:51.161Z,59.10
2018-09-01T22:31:19.299Z,59.30
2018-09-01T22:33:47.330Z,59.40
2018-09-01T22:36:15.386Z,59.70
2018-09-01T22:38:43.444Z,59.90
2018-09-01T22:41:11.539Z,60.00
2018-09-01T22:43:39.593Z,60.10
2018-09-01T22:46:07.666Z,60.00
2018-09-01T22:48:35.714Z,60.20
2018-09-01T22:51:03.784Z,60.40
2018-09-01T22:53:31.877Z,60.40
2018-09-01T22:56:00.212Z,60.50
2018-09-01T22:58:28.327Z,60.80
2018-09-01T23:00:56.427Z,61.50
2018-09-01T23:03:24.477Z,62.10
2018-09-01T23:05:52.578Z,62.80
2018-09-01T23:08:20.692Z,63.00
2018-09-01T23:10:48.784Z,63.10
2018-09-01T23:13:16.850Z,63.30
2018-09-01T23:15:44.922Z,64.00
2018-09-01T23:18:12.995Z,65.20
2018-09-01T23:20:41.226Z,66.80
2018-09-01T23:23:09.334Z,67.50
2018-09-01T23:25:37.410Z,68.90
2018-09-01T23:28:05.509Z,69.20
2018-09-01T23:30:33.603Z,70.90
2018-09-01T23:33:01.732Z,72.10
2018-09-01T23:35:29.831Z,72.90
2018-09-01T23:37:57.920Z,73.50
2018-09-01T23:40:25.994Z,74.50
2018-09-01T23:42:54.191Z,75.30
2018-09-01T23:45:22.551Z,76.00
2018-09-01T23:47:50.604Z,77.00
2018-09-01T23:50:18.711Z,77.40
2018-09-01T23:52:46.820Z,77.90
2018-09-01T23:55:14.908Z,78.40
2018-09-01T23:57:42.972Z,78.80
